sensor_id;sensor_type;location;lat;lon;timestamp;temperature;humidity
30467;DHT22;17258;52.560;13.046;2023-07-16T00:08:56;27.90;43.60
30467;DHT22;17258;52.560;13.046;2023-07-16T00:18:57;27.80;43.70
30467;DHT22;17258;52.560;13.046;2023-07-16T00:28:58;27.70;43.70
30467;DHT22;17258;52.560;13.046;2023-07-16T00:38:58;27.60;43.90
30467;DHT22;17258;52.560;13.046;2023-07-16T00:48:59;27.40;44.00
30467;DHT22;17258;52.560;13.046;2023-07-16T00:59:01;27.30;44.20
30467;DHT22;17258;52.560;13.046;2023-07-16T01:09:07;27.10;44.50
30467;DHT22;17258;52.560;13.046;2023-07-16T01:19:09;27.10;45.10
30467;DHT22;17258;52.560;13.046;2023-07-16T01:29:40;27.00;45.30
30467;DHT22;17258;52.560;13.046;2023-07-16T01:39:42;27.00;47.30
30467;DHT22;17258;52.560;13.046;2023-07-16T01:49:43;27.00;47.00
30467;DHT22;17258;52.560;13.046;2023-07-16T01:59:44;27.00;46.90
30467;DHT22;17258;52.560;13.046;2023-07-16T02:09:45;27.00;46.90
30467;DHT22;17258;52.560;13.046;2023-07-16T02:19:46;27.10;47.20
30467;DHT22;17258;52.560;13.046;2023-07-16T02:29:46;27.10;47.30
30467;DHT22;17258;52.560;13.046;2023-07-16T02:39:47;27.00;47.10
30467;DHT22;17258;52.560;13.046;2023-07-16T02:49:51;26.80;47.30
30467;DHT22;17258;52.560;13.046;2023-07-16T02:59:52;26.70;47.60
30467;DHT22;17258;52.560;13.046;2023-07-16T03:09:53;26.60;47.60
30467;DHT22;17258;52.560;13.046;2023-07-16T03:19:53;26.50;47.80
30467;DHT22;17258;52.560;13.046;2023-07-16T03:29:54;26.50;48.10
30467;DHT22;17258;52.560;13.046;2023-07-16T03:39:55;26.40;48.10
30467;DHT22;17258;52.560;13.046;2023-07-16T03:49:55;26.30;48.40
30467;DHT22;17258;52.560;13.046;2023-07-16T03:59:56;26.30;48.70
30467;DHT22;17258;52.560;13.046;2023-07-16T04:09:57;26.30;49.30
30467;DHT22;17258;52.560;13.046;2023-07-16T04:19:57;26.30;49.10
30467;DHT22;17258;52.560;13.046;2023-07-16T04:29:58;26.30;49.40
30467;DHT22;17258;52.560;13.046;2023-07-16T04:39:59;26.20;49.40
30467;DHT22;17258;52.560;13.046;2023-07-16T04:49:59;26.20;49.50
30467;DHT22;17258;52.560;13.046;2023-07-16T05:00:00;26.20;49.70
30467;DHT22;17258;52.560;13.046;2023-07-16T05:10:01;26.20;50.10
30467;DHT22;17258;52.560;13.046;2023-07-16T05:20:02;26.20;50.10
30467;DHT22;17258;52.560;13.046;2023-07-16T05:30:04;26.20;50.40
30467;DHT22;17258;52.560;13.046;2023-07-16T05:40:06;26.20;50.60
30467;DHT22;17258;52.560;13.046;2023-07-16T05:50:09;26.30;50.70
30467;DHT22;17258;52.560;13.046;2023-07-16T06:00:10;26.30;51.00
30467;DHT22;17258;52.560;13.046;2023-07-16T06:10:11;26.40;51.30
30467;DHT22;17258;52.560;13.046;2023-07-16T06:20:11;26.60;51.80
30467;DHT22;17258;52.560;13.046;2023-07-16T06:30:12;26.70;52.20
30467;DHT22;17258;52.560;13.046;2023-07-16T06:40:13;26.90;52.40
30467;DHT22;17258;52.560;13.046;2023-07-16T06:50:13;27.20;52.50
30467;DHT22;17258;52.560;13.046;2023-07-16T07:00:14;27.40;52.50
30467;DHT22;17258;52.560;13.046;2023-07-16T07:10:15;27.60;52.10
30467;DHT22;17258;52.560;13.046;2023-07-16T07:20:16;27.80;51.90
30467;DHT22;17258;52.560;13.046;2023-07-16T07:30:16;28.00;51.50
30467;DHT22;17258;52.560;13.046;2023-07-16T07:40:18;28.30;51.40
30467;DHT22;17258;52.560;13.046;2023-07-16T07:50:19;28.40;51.20
30467;DHT22;17258;52.560;13.046;2023-07-16T08:00:20;28.60;50.90
30467;DHT22;17258;52.560;13.046;2023-07-16T08:10:22;28.80;50.30
30467;DHT22;17258;52.560;13.046;2023-07-16T08:20:22;29.00;49.70
30467;DHT22;17258;52.560;13.046;2023-07-16T08:30:23;29.20;49.50
30467;DHT22;17258;52.560;13.046;2023-07-16T08:40:24;29.40;48.80
30467;DHT22;17258;52.560;13.046;2023-07-16T08:50:25;29.40;48.00
30467;DHT22;17258;52.560;13.046;2023-07-16T09:00:27;29.30;47.90
30467;DHT22;17258;52.560;13.046;2023-07-16T09:10:29;29.40;47.60
30467;DHT22;17258;52.560;13.046;2023-07-16T09:20:30;29.50;47.30
30467;DHT22;17258;52.560;13.046;2023-07-16T09:30:32;29.70;46.50
30467;DHT22;17258;52.560;13.046;2023-07-16T09:40:39;29.80;46.20
30467;DHT22;17258;52.560;13.046;2023-07-16T09:50:51;29.80;45.80
30467;DHT22;17258;52.560;13.046;2023-07-16T10:00:53;29.80;45.50
30467;DHT22;17258;52.560;13.046;2023-07-16T10:10:56;29.90;46.10
30467;DHT22;17258;52.560;13.046;2023-07-16T10:21:08;30.20;45.80
30467;DHT22;17258;52.560;13.046;2023-07-16T10:31:21;30.40;45.30
30467;DHT22;17258;52.560;13.046;2023-07-16T10:41:23;30.70;44.50
30467;DHT22;17258;52.560;13.046;2023-07-16T10:51:26;31.00;45.40
30467;DHT22;17258;52.560;13.046;2023-07-16T11:01:29;31.30;44.80
30467;DHT22;17258;52.560;13.046;2023-07-16T11:11:30;31.80;44.50
30467;DHT22;17258;52.560;13.046;2023-07-16T11:21:34;32.10;44.50
30467;DHT22;17258;52.560;13.046;2023-07-16T11:31:39;32.70;44.00
30467;DHT22;17258;52.560;13.046;2023-07-16T11:41:54;33.20;43.40
30467;DHT22;17258;52.560;13.046;2023-07-16T11:51:57;33.50;41.60
30467;DHT22;17258;52.560;13.046;2023-07-16T12:01:58;33.70;42.10
30467;DHT22;17258;52.560;13.046;2023-07-16T12:12:01;33.80;40.50
30467;DHT22;17258;52.560;13.046;2023-07-16T12:22:02;33.70;39.70
30467;DHT22;17258;52.560;13.046;2023-07-16T12:32:03;33.70;39.20
30467;DHT22;17258;52.560;13.046;2023-07-16T12:42:05;33.70;39.00
30467;DHT22;17258;52.560;13.046;2023-07-16T12:52:06;34.00;38.50
30467;DHT22;17258;52.560;13.046;2023-07-16T13:02:06;34.20;37.80
30467;DHT22;17258;52.560;13.046;2023-07-16T13:12:07;34.50;38.10
30467;DHT22;17258;52.560;13.046;2023-07-16T13:22:08;34.70;36.80
30467;DHT22;17258;52.560;13.046;2023-07-16T13:32:09;35.00;36.70
30467;DHT22;17258;52.560;13.046;2023-07-16T13:42:09;35.10;36.10
30467;DHT22;17258;52.560;13.046;2023-07-16T13:52:11;35.10;35.00
30467;DHT22;17258;52.560;13.046;2023-07-16T14:02:12;35.00;35.20
30467;DHT22;17258;52.560;13.046;2023-07-16T14:12:14;35.00;35.50
30467;DHT22;17258;52.560;13.046;2023-07-16T14:22:15;35.00;34.10
30467;DHT22;17258;52.560;13.046;2023-07-16T14:32:16;34.80;34.40
30467;DHT22;17258;52.560;13.046;2023-07-16T14:42:16;34.80;34.80
30467;DHT22;17258;52.560;13.046;2023-07-16T14:52:18;35.10;34.60
30467;DHT22;17258;52.560;13.046;2023-07-16T15:02:19;35.30;34.30
30467;DHT22;17258;52.560;13.046;2023-07-16T15:12:20;35.50;33.40
30467;DHT22;17258;52.560;13.046;2023-07-16T15:22:20;35.60;32.60
30467;DHT22;17258;52.560;13.046;2023-07-16T15:32:21;35.50;32.40
30467;DHT22;17258;52.560;13.046;2023-07-16T15:42:22;35.30;32.50
30467;DHT22;17258;52.560;13.046;2023-07-16T15:52:24;35.20;32.30
30467;DHT22;17258;52.560;13.046;2023-07-16T16:02:25;35.00;31.80
30467;DHT22;17258;52.560;13.046;2023-07-16T16:12:25;34.80;32.10
30467;DHT22;17258;52.560;13.046;2023-07-16T16:22:26;34.90;31.70
30467;DHT22;17258;52.560;13.046;2023-07-16T16:32:27;34.60;30.50
30467;DHT22;17258;52.560;13.046;2023-07-16T16:42:27;34.50;30.60
30467;DHT22;17258;52.560;13.046;2023-07-16T16:52:29;34.40;31.00
30467;DHT22;17258;52.560;13.046;2023-07-16T17:02:30;34.50;30.50
30467;DHT22;17258;52.560;13.046;2023-07-16T17:12:30;34.60;30.70
30467;DHT22;17258;52.560;13.046;2023-07-16T17:22:31;34.70;30.60
30467;DHT22;17258;52.560;13.046;2023-07-16T17:32:32;34.80;30.30
30467;DHT22;17258;52.560;13.046;2023-07-16T17:42:34;34.60;30.10
30467;DHT22;17258;52.560;13.046;2023-07-16T17:52:35;34.50;30.20
30467;DHT22;17258;52.560;13.046;2023-07-16T18:02:35;34.30;30.20
30467;DHT22;17258;52.560;13.046;2023-07-16T18:12:36;34.20;30.20
30467;DHT22;17258;52.560;13.046;2023-07-16T18:22:37;34.00;30.30
30467;DHT22;17258;52.560;13.046;2023-07-16T18:32:38;34.00;30.60
30467;DHT22;17258;52.560;13.046;2023-07-16T18:42:39;33.80;30.30
30467;DHT22;17258;52.560;13.046;2023-07-16T18:52:40;33.50;30.80
30467;DHT22;17258;52.560;13.046;2023-07-16T19:02:40;33.10;31.20
30467;DHT22;17258;52.560;13.046;2023-07-16T19:12:41;32.70;31.50
30467;DHT22;17258;52.560;13.046;2023-07-16T19:22:42;32.30;31.70
30467;DHT22;17258;52.560;13.046;2023-07-16T19:32:42;31.80;32.00
30467;DHT22;17258;52.560;13.046;2023-07-16T19:42:43;31.40;32.40
30467;DHT22;17258;52.560;13.046;2023-07-16T19:52:44;31.00;32.70
30467;DHT22;17258;52.560;13.046;2023-07-16T20:02:45;30.70;33.00
30467;DHT22;17258;52.560;13.046;2023-07-16T20:12:46;30.20;33.20
30467;DHT22;17258;52.560;13.046;2023-07-16T20:22:47;29.80;33.50
30467;DHT22;17258;52.560;13.046;2023-07-16T20:32:47;29.50;34.00
30467;DHT22;17258;52.560;13.046;2023-07-16T20:42:48;29.10;34.10
30467;DHT22;17258;52.560;13.046;2023-07-16T20:52:50;28.70;34.50
30467;DHT22;17258;52.560;13.046;2023-07-16T21:02:53;28.30;34.70
30467;DHT22;17258;52.560;13.046;2023-07-16T21:12:56;28.00;35.10
30467;DHT22;17258;52.560;13.046;2023-07-16T21:22:57;27.80;35.50
30467;DHT22;17258;52.560;13.046;2023-07-16T21:32:58;27.60;35.70
30467;DHT22;17258;52.560;13.046;2023-07-16T21:42:58;27.40;35.90
30467;DHT22;17258;52.560;13.046;2023-07-16T21:52:59;27.20;36.30
30467;DHT22;17258;52.560;13.046;2023-07-16T22:03:01;26.90;36.50
30467;DHT22;17258;52.560;13.046;2023-07-16T22:13:03;26.70;36.70
30467;DHT22;17258;52.560;13.046;2023-07-16T22:23:04;26.40;36.80
30467;DHT22;17258;52.560;13.046;2023-07-16T22:33:05;26.30;37.00
30467;DHT22;17258;52.560;13.046;2023-07-16T22:43:06;26.00;37.30
30467;DHT22;17258;52.560;13.046;2023-07-16T22:53:18;25.80;37.70
30467;DHT22;17258;52.560;13.046;2023-07-16T23:03:19;25.60;39.20
30467;DHT22;17258;52.560;13.046;2023-07-16T23:13:20;25.30;38.10
30467;DHT22;17258;52.560;13.046;2023-07-16T23:23:20;25.10;38.30
30467;DHT22;17258;52.560;13.046;2023-07-16T23:33:21;24.80;38.50
30467;DHT22;17258;52.560;13.046;2023-07-16T23:43:22;24.70;38.90
30467;DHT22;17258;52.560;13.046;2023-07-16T23:53:22;24.50;39.20
